Vosselaar, Belgium
Current Conditions -  °F | °C
As of 1:25 AM on Monday 24 Nov 2014 (Local Time) from EHGR Reporting Station
Light Rain Light Rain  
Wind Chill: 50°   Ceiling: 5300
Heat Index: 50°   Visibility: 6mi
Dew Point: 48°   Wind: 7mph
Humidity: 94%   Direction: 320°NW
Pressure: 30.06"   Gusts: NA
Location:  51.31°N, 4.89°E
Report Text: EHGR 240025Z AUTO 32006KT 9999 -RA FEW005 SCT048 OVC053 10/09 Q1018 RERA REDZ BLU
Loading
Personal Weather Stations






























Interactive Weather Map New forecast layout! Learn more

10-Day Weather Forecast

Advertisements
Track Severe Weather on mobile